עמוד ראשי
METAR-TAF:

METAR-TAF

שדות תעופה :

Seward, אלסקה, ארצות הברית

קו רוחב: 60-07N, קו אורך: 149-27W, גובה: 9מטר

תצפית מזג אוויר נוכחית

הדו"ח נערך לפני 20דקות, בשעה 17:53 UTC
רוח 5קשר מכיוון דרום/דרום-מערב
טמפרטורת 10 צלסיוס
לחות 87%
לחץ 1017 hPa
ראות: 16.1קילומטר
עננים פזורים בגובה 1800רגל
עננים בינוניים בגובה 6000רגל
מעונן בגובה 7000רגל
גשם קל

METAR: PAWD 201753Z AUTO 20005KT 10SM -RA SCT018 BKN060 OVC070 10/08 A3002 RMK AO2 RAE03B50 SLP166 P0000 60000 T01000078 10106 20078 55002 TSNO

זמן: 10:13 (18:13 UTC)


TAF: חסר

תצפיות ותחזיות מזג אוויר לגבי יותר מ- 4,000 שדות תעופה ברחבי העולם. דוחות METAR ו- TAF.

התחנות הזמינות מסומנות בנקודות צהובות ואדומות על גבי המפה.

העבר את העכבר לנקודה הצבעונית על מנת לראות את שם התחנה.

לאחר מכן, לחץ כדי לראות את תוכן ואת תחזיות מזג האוויר.

כדי לשנות את המפה: לחץ על הכפתורים הירוקים עם הפלוס השחור כדי להתקרב; על הכפתור הירוק עם המקף כדי להתרחק; או בחיצים הירוקים למפות סמוכות.


METAR-TAF: